Time;durP1;ratioP1;P1;durP2;ratioP2;P2;SDS_P1;SDS_P2;PMS_P1;PMS_P2;Temp;Humidity;BMP_temperature;BMP_pressure;BME280_temperature;BME280_humidity;BME280_pressure;Samples;Min_cycle;Max_cycle;Signal;HPM_P1;HPM_P2
2022/06/01 00:01:26;;;;;;;33.50;22.65;;;;;;;-141.50;100.00;63355.56;5072757;28;20641;-83
2022/06/01 00:03:58;;;;;;;37.95;23.85;;;;;;;-141.50;100.00;63355.56;5074767;28;20144;-83
2022/06/01 00:06:28;;;;;;;33.67;24.10;;;;;;;-141.50;100.00;63355.56;5073535;28;20053;-81
2022/06/01 00:08:58;;;;;;;36.25;23.45;;;;;;;-141.50;100.00;63355.56;5073797;28;20048;-81
2022/06/01 00:11:27;;;;;;;32.10;22.80;;;;;;;-141.50;100.00;63355.56;5077482;28;20422;-82
2022/06/01 00:13:54;;;;;;;36.55;24.80;;;;;;;-141.50;100.00;63355.56;5059114;28;20059;-84
2022/06/01 00:16:22;;;;;;;39.78;26.83;;;;;;;-141.50;100.00;63355.56;5071777;28;20084;-82
2022/06/01 00:18:48;;;;;;;42.20;27.27;;;;;;;-141.50;100.00;63355.56;5053686;28;20495;-81
2022/06/01 00:21:18;;;;;;;45.65;28.95;;;;;;;-141.50;100.00;63355.56;5071356;28;20178;-82
2022/06/01 00:23:48;;;;;;;42.00;28.23;;;;;;;-141.50;100.00;63355.56;5072155;28;20624;-81
2022/06/01 00:26:14;;;;;;;45.10;27.95;;;;;;;-141.50;100.00;63355.56;5054960;28;20083;-82
2022/06/01 00:28:41;;;;;;;37.67;26.02;;;;;;;-141.50;100.00;63355.56;5055271;28;20048;-81
2022/06/01 00:31:13;;;;;;;39.90;25.02;;;;;;;-141.50;100.00;63355.56;5054975;28;20086;-84
2022/06/01 00:33:42;;;;;;;30.00;20.42;;;;;;;-141.50;100.00;63355.56;5072833;28;20112;-81
2022/06/01 00:36:10;;;;;;;32.35;20.83;;;;;;;-141.50;100.00;63355.56;5077457;28;20040;-84
2022/06/01 00:38:36;;;;;;;28.90;20.52;;;;;;;-141.50;100.00;63355.56;5090438;28;20052;-79
2022/06/01 00:41:06;;;;;;;28.88;19.90;;;;;;;-141.50;100.00;63355.56;5077769;28;20104;-83
2022/06/01 00:43:38;;;;;;;30.25;20.10;;;;;;;-141.50;100.00;63355.56;5056885;28;20075;-81
2022/06/01 00:46:04;;;;;;;30.40;21.60;;;;;;;-141.50;100.00;63355.56;5056378;28;20056;-83
2022/06/01 00:48:34;;;;;;;31.17;21.23;;;;;;;-141.50;100.00;63355.56;5056757;28;20056;-82
2022/06/01 00:51:01;;;;;;;33.40;22.73;;;;;;;-141.50;100.00;63355.56;5072780;28;20080;-83
2022/06/01 00:53:33;;;;;;;32.53;21.90;;;;;;;-141.50;100.00;63355.56;5073486;28;20114;-82
2022/06/01 00:56:04;;;;;;;31.00;21.80;;;;;;;-141.50;100.00;63355.56;5073869;28;20103;-81
2022/06/01 00:58:36;;;;;;;32.70;22.38;;;;;;;-141.50;100.00;63355.56;5054521;28;20552;-81
2022/06/01 01:01:08;;;;;;;34.30;23.63;;;;;;;-141.50;100.00;63355.56;5072663;28;20053;-80
2022/06/01 01:03:37;;;;;;;36.03;23.23;;;;;;;-141.50;100.00;63355.56;5070801;28;20458;-82
2022/06/01 01:06:20;;;;;;;33.97;23.40;;;;;;;-141.50;100.00;63355.56;5072597;28;20222;-83
2022/06/01 01:08:48;;;;;;;35.78;23.88;;;;;;;-141.50;100.00;63355.56;5055099;28;20479;-82
2022/06/01 01:11:19;;;;;;;38.78;25.40;;;;;;;-141.50;100.00;63355.56;5071488;28;20612;-82
2022/06/01 01:13:49;;;;;;;36.40;24.05;;;;;;;-141.50;100.00;63355.56;5070201;28;20056;-84
2022/06/01 01:16:16;;;;;;;35.35;25.38;;;;;;;-141.50;100.00;63355.56;5070800;28;20514;-81
2022/06/01 01:18:45;;;;;;;37.30;24.05;;;;;;;-141.50;100.00;63355.56;5071336;28;20095;-82
2022/06/01 01:21:33;;;;;;;38.65;25.48;;;;;;;-141.50;100.00;63355.56;5053648;28;20049;-79
2022/06/01 01:24:26;;;;;;;38.83;23.85;;;;;;;-141.50;100.00;63355.56;5071266;28;20080;-80
2022/06/01 01:26:56;;;;;;;32.17;22.67;;;;;;;-141.50;100.00;63355.56;5071593;28;20497;-83
2022/06/01 01:29:34;;;;;;;32.88;22.85;;;;;;;-141.50;100.00;63355.56;5054449;28;20060;-81
2022/06/01 01:32:05;;;;;;;31.75;23.38;;;;;;;-141.50;100.00;63355.56;5053338;28;20135;-80
2022/06/01 01:34:37;;;;;;;33.92;25.08;;;;;;;-141.50;100.00;63355.56;5054086;28;20052;-81
2022/06/01 01:37:11;;;;;;;42.28;27.15;;;;;;;-141.50;100.00;63355.56;5074258;28;20048;-83
2022/06/01 01:39:38;;;;;;;40.92;26.70;;;;;;;-141.50;100.00;63355.56;5054585;28;20088;-81
2022/06/01 01:42:06;;;;;;;37.85;25.83;;;;;;;-141.50;100.00;63355.56;5071037;28;20044;-83
2022/06/01 01:44:51;;;;;;;42.42;27.23;;;;;;;-141.50;100.00;63355.56;5077292;28;20048;-81
2022/06/01 01:47:19;;;;;;;37.27;23.97;;;;;;;-141.50;100.00;63355.56;5083035;28;20059;-82
2022/06/01 01:49:46;;;;;;;30.73;23.17;;;;;;;-141.50;100.00;63355.56;5073894;28;20323;-82
2022/06/01 01:52:15;;;;;;;65.95;24.95;;;;;;;-141.50;100.00;63355.56;5072382;28;20056;-81
2022/06/01 01:55:06;;;;;;;34.33;24.27;;;;;;;-141.50;100.00;63355.56;5069810;28;20087;-80
2022/06/01 01:57:54;;;;;;;42.53;25.90;;;;;;;-141.50;100.00;63355.56;5073468;28;20092;-82
2022/06/01 02:00:24;;;;;;;63.72;26.70;;;;;;;-141.50;100.00;63355.56;5070961;28;20095;-81
2022/06/01 02:03:15;;;;;;;70.90;28.95;;;;;;;-141.50;100.00;63355.56;5071247;28;20049;-82
2022/06/01 02:06:20;;;;;;;45.63;28.08;;;;;;;-141.50;100.00;63355.56;5072092;28;20059;-81
2022/06/01 02:09:01;;;;;;;90.32;29.40;;;;;;;-141.50;100.00;63355.56;5053653;28;20075;-83
2022/06/01 02:14:24;;;;;;;47.60;28.65;;;;;;;-141.50;100.00;63355.56;5068962;28;20064;-82
2022/06/01 02:17:03;;;;;;;49.90;30.87;;;;;;;-141.50;100.00;63355.56;5070072;28;20117;-81
2022/06/01 02:19:57;;;;;;;50.42;32.38;;;;;;;-141.50;100.00;63355.56;5069916;28;20048;-82
2022/06/01 02:22:24;;;;;;;56.30;34.60;;;;;;;-141.50;100.00;63355.56;5052987;28;20139;-82
2022/06/01 02:24:51;;;;;;;51.67;32.97;;;;;;;-141.50;100.00;63355.56;5075621;28;20048;-82
2022/06/01 02:27:19;;;;;;;47.97;30.95;;;;;;;-141.50;100.00;63355.56;5059181;28;20087;-81
2022/06/01 02:30:07;;;;;;;41.70;27.23;;;;;;;-141.50;100.00;63355.56;5076289;28;20091;-80
2022/06/01 02:32:41;;;;;;;38.72;26.95;;;;;;;-141.50;100.00;63355.56;5075934;28;20048;-80
2022/06/01 02:35:11;;;;;;;43.05;27.52;;;;;;;-141.50;100.00;63355.56;5074754;28;20079;-82
2022/06/01 02:37:39;;;;;;;45.45;28.98;;;;;;;-141.50;100.00;63355.56;5061678;28;20071;-81
2022/06/01 02:40:13;;;;;;;45.22;30.10;;;;;;;-141.50;100.00;63355.56;5057253;28;20084;-84
2022/06/01 02:42:43;;;;;;;44.60;26.63;;;;;;;-141.50;100.00;63355.56;5059305;28;20071;-80
2022/06/01 02:45:11;;;;;;;38.35;25.45;;;;;;;-141.50;100.00;63355.56;5067982;28;20061;-81
2022/06/01 02:47:43;;;;;;;39.85;25.08;;;;;;;-141.50;100.00;63355.56;5053090;28;20048;-82
2022/06/01 02:50:13;;;;;;;36.13;24.98;;;;;;;-141.50;100.00;63355.56;5072304;28;20048;-80
2022/06/01 02:52:40;;;;;;;25.10;17.85;;;;;;;-141.50;100.00;63355.56;5045955;28;20053;-82
2022/06/01 02:55:08;;;;;;;23.02;16.95;;;;;;;-141.50;100.00;63355.56;5058051;28;20148;-83
2022/06/01 02:57:43;;;;;;;22.55;16.63;;;;;;;-141.50;100.00;63355.56;5058992;28;20049;-82
2022/06/01 03:00:17;;;;;;;22.15;16.83;;;;;;;-141.50;100.00;63355.56;5058565;28;20131;-83
2022/06/01 03:02:48;;;;;;;27.42;20.10;;;;;;;-141.50;100.00;63355.56;5058127;28;20230;-82
2022/06/01 03:05:21;;;;;;;33.67;22.80;;;;;;;-141.50;100.00;63355.56;5041616;28;20053;-83
2022/06/01 03:07:48;;;;;;;32.10;21.92;;;;;;;-141.50;100.00;63355.56;5058098;28;20115;-82
2022/06/01 03:10:22;;;;;;;29.80;21.90;;;;;;;-141.50;100.00;63355.56;5038803;28;20053;-82
2022/06/01 03:12:53;;;;;;;29.55;20.38;;;;;;;-141.50;100.00;63355.56;5040031;28;20115;-83
2022/06/01 03:15:24;;;;;;;24.88;18.27;;;;;;;-141.50;100.00;63355.56;5060472;28;20076;-82
2022/06/01 03:17:54;;;;;;;22.45;16.10;;;;;;;-141.50;100.00;63355.56;5077569;28;20048;-82
2022/06/01 03:20:23;;;;;;;22.52;16.30;;;;;;;-141.50;100.00;63355.56;5058558;28;20056;-82
2022/06/01 03:22:57;;;;;;;21.42;16.15;;;;;;;-141.50;100.00;63355.56;5076288;28;20052;-81
2022/06/01 03:25:25;;;;;;;23.20;15.65;;;;;;;-141.50;100.00;63355.56;5059024;28;20056;-82
2022/06/01 03:28:02;;;;;;;22.17;16.55;;;;;;;-141.50;100.00;63355.56;5076471;28;20468;-82
2022/06/01 03:30:30;;;;;;;25.30;17.40;;;;;;;-141.50;100.00;63355.56;5057934;28;20131;-82
2022/06/01 03:33:00;;;;;;;28.98;17.55;;;;;;;-141.50;100.00;63355.56;5086128;28;20112;-82
2022/06/01 03:35:30;;;;;;;27.50;18.88;;;;;;;-141.50;100.00;63355.56;5082452;28;20115;-82
2022/06/01 03:37:57;;;;;;;23.20;17.30;;;;;;;-141.50;100.00;63355.56;5077173;28;20504;-81
2022/06/01 03:40:31;;;;;;;24.42;17.35;;;;;;;-141.50;100.00;63355.56;5055417;28;20625;-82
2022/06/01 03:43:01;;;;;;;21.98;17.25;;;;;;;-141.50;100.00;63355.56;5055753;28;20045;-80
2022/06/01 03:48:16;;;;;;;24.30;16.92;;;;;;;-141.50;100.00;63355.56;5077424;28;20127;-84
2022/06/01 03:50:45;;;;;;;24.92;18.00;;;;;;;-141.50;100.00;63355.56;5054283;28;20113;-81
2022/06/01 03:53:13;;;;;;;25.92;17.60;;;;;;;-141.50;100.00;63355.56;5074002;28;20045;-82
2022/06/01 03:55:40;;;;;;;25.58;17.77;;;;;;;-141.50;100.00;63355.56;5073432;28;20127;-83
2022/06/01 03:58:19;;;;;;;23.20;17.20;;;;;;;-141.50;100.00;63355.56;5087230;28;20047;-83
2022/06/01 04:00:46;;;;;;;22.40;16.58;;;;;;;-141.50;100.00;63355.56;5075945;28;20052;-81
2022/06/01 04:03:13;;;;;;;25.38;17.88;;;;;;;-141.50;100.00;63355.56;5078105;28;20047;-80
2022/06/01 04:05:42;;;;;;;25.15;17.85;;;;;;;-141.50;100.00;63355.56;5054736;28;20056;-81
2022/06/01 04:08:08;;;;;;;25.80;18.73;;;;;;;-141.50;100.00;63355.56;5087323;28;20177;-81
2022/06/01 04:10:37;;;;;;;28.23;20.35;;;;;;;-141.50;100.00;63355.56;5096026;28;20048;-79
2022/06/01 04:13:07;;;;;;;26.23;20.17;;;;;;;-141.50;100.00;63355.56;5085336;28;20044;-82
2022/06/01 04:15:33;;;;;;;32.55;19.65;;;;;;;-141.50;100.00;63355.56;5090643;28;20052;-81
2022/06/01 04:17:59;;;;;;;29.65;21.10;;;;;;;-141.50;100.00;63355.56;5080868;28;20048;-81
2022/06/01 04:20:26;;;;;;;28.90;21.95;;;;;;;-141.50;100.00;63355.56;5081493;28;20566;-81
2022/06/01 04:22:54;;;;;;;33.00;23.02;;;;;;;-141.50;100.00;63355.56;5081080;28;20053;-80
2022/06/01 04:25:22;;;;;;;31.25;23.15;;;;;;;-141.50;100.00;63355.56;5080548;28;20056;-82
2022/06/01 04:27:49;;;;;;;35.83;25.05;;;;;;;-141.50;100.00;63355.56;5061181;28;20070;-80
2022/06/01 04:30:17;;;;;;;37.35;25.40;;;;;;;-141.50;100.00;63355.56;5073424;28;20139;-82
2022/06/01 04:32:47;;;;;;;37.63;26.05;;;;;;;-141.50;100.00;63355.56;5071369;28;20097;-81
2022/06/01 04:35:15;;;;;;;37.47;25.10;;;;;;;-141.50;100.00;63355.56;5074004;28;20083;-81
2022/06/01 04:37:42;;;;;;;36.33;23.65;;;;;;;-141.50;100.00;63355.56;5056264;28;20096;-81
2022/06/01 04:40:11;;;;;;;32.28;23.25;;;;;;;-141.50;100.00;63355.56;5072448;28;20566;-82
2022/06/01 04:42:39;;;;;;;32.53;23.05;;;;;;;-141.50;100.00;63355.56;5072857;28;20080;-82
2022/06/01 04:45:07;;;;;;;31.83;21.80;;;;;;;-141.50;100.00;63355.56;5072422;28;20103;-81
2022/06/01 04:47:34;;;;;;;27.88;21.08;;;;;;;-141.50;100.00;63355.56;5073135;28;20049;-81
2022/06/01 04:50:01;;;;;;;27.80;20.05;;;;;;;-141.50;100.00;63355.56;5055615;28;20083;-80
2022/06/01 04:52:29;;;;;;;25.75;18.35;;;;;;;-141.50;100.00;63355.56;5070975;28;20408;-81
2022/06/01 04:54:56;;;;;;;23.83;17.20;;;;;;;-141.50;100.00;63355.56;5070898;28;20044;-78
2022/06/01 04:57:22;;;;;;;21.75;15.05;;;;;;;-141.50;100.00;63355.56;5071841;28;20143;-82
2022/06/01 04:59:49;;;;;;;17.23;12.80;;;;;;;-141.50;100.00;63355.56;5058489;28;20070;-81
2022/06/01 05:02:16;;;;;;;14.30;9.93;;;;;;;-141.50;100.00;63355.56;5075472;28;20124;-82
2022/06/01 05:04:43;;;;;;;13.55;7.35;;;;;;;-141.50;100.00;63355.56;5074942;28;20040;-80
2022/06/01 05:07:09;;;;;;;9.68;6.60;;;;;;;-141.50;100.00;63355.56;5059763;28;20478;-79
2022/06/01 05:09:36;;;;;;;8.80;5.70;;;;;;;-141.50;100.00;63355.56;5059667;28;20406;-83
2022/06/01 05:12:03;;;;;;;7.90;5.28;;;;;;;-141.50;100.00;63355.56;5097960;28;20059;-82
2022/06/01 05:14:32;;;;;;;6.80;4.63;;;;;;;-141.50;100.00;63355.56;5087346;28;20070;-80
2022/06/01 05:16:59;;;;;;;10.25;4.90;;;;;;;-141.50;100.00;63355.56;5074777;28;20110;-82
2022/06/01 05:19:29;;;;;;;10.93;4.82;;;;;;;-141.50;100.00;63355.56;5075845;28;20048;-80
2022/06/01 05:21:59;;;;;;;9.30;4.85;;;;;;;-141.50;100.00;63355.56;5070382;28;20127;-84
2022/06/01 05:24:25;;;;;;;6.82;4.60;;;;;;;-141.50;100.00;63355.56;5058416;28;20140;-81
2022/06/01 05:26:52;;;;;;;7.47;3.83;;;;;;;-141.50;100.00;63355.56;5055072;28;20051;-82
2022/06/01 05:29:18;;;;;;;4.72;3.53;;;;;;;-141.50;100.00;63355.56;5070900;28;20045;-81
2022/06/01 05:31:45;;;;;;;6.45;4.22;;;;;;;-141.50;100.00;63355.56;5071278;28;20090;-81
2022/06/01 05:34:12;;;;;;;6.75;3.95;;;;;;;-141.50;100.00;63355.56;5070127;28;20068;-82
2022/06/01 05:36:38;;;;;;;8.15;3.45;;;;;;;-141.50;100.00;63355.56;5054384;28;20151;-83
2022/06/01 05:39:04;;;;;;;6.72;3.42;;;;;;;-141.50;100.00;63355.56;5071852;28;20052;-82
2022/06/01 05:41:31;;;;;;;6.13;3.70;;;;;;;-141.50;100.00;63355.56;5070079;28;20124;-83
2022/06/01 05:43:58;;;;;;;5.82;3.22;;;;;;;-141.50;100.00;63355.56;5074057;28;20181;-81
2022/06/01 05:46:25;;;;;;;5.47;3.28;;;;;;;-141.50;100.00;63355.56;5072357;28;20197;-83
2022/06/01 05:48:52;;;;;;;6.65;3.35;;;;;;;-141.50;100.00;63355.56;5073850;28;20090;-82
2022/06/01 05:51:19;;;;;;;3.97;2.67;;;;;;;-141.50;100.00;63355.56;5071532;28;20076;-82
2022/06/01 05:53:45;;;;;;;8.27;3.10;;;;;;;-141.50;100.00;63355.56;5071099;28;20044;-82
2022/06/01 05:56:12;;;;;;;5.35;2.85;;;;;;;-141.50;100.00;63355.56;5053814;28;20072;-84
2022/06/01 05:58:38;;;;;;;4.88;2.70;;;;;;;-141.50;100.00;63355.56;5071653;28;20072;-81
2022/06/01 06:01:07;;;;;;;4.75;2.60;;;;;;;-141.50;100.00;63355.56;5050254;28;20076;-83
2022/06/01 06:03:36;;;;;;;3.97;2.50;;;;;;;-141.50;100.00;63355.56;5069013;28;20048;-80
2022/06/01 06:06:12;;;;;;;6.43;2.80;;;;;;;-141.50;100.00;63355.56;5068164;28;20539;-82
2022/06/01 06:08:44;;;;;;;6.88;2.47;;;;;;;-141.50;100.00;63355.56;5054385;28;20060;-83
2022/06/01 06:11:19;;;;;;;5.20;2.47;;;;;;;-141.50;100.00;63355.56;5055000;28;20541;-81
2022/06/01 06:13:46;;;;;;;4.53;2.70;;;;;;;-141.50;100.00;63355.56;5053548;28;20125;-81
2022/06/01 06:16:14;;;;;;;3.65;2.72;;;;;;;-141.50;100.00;63355.56;5072759;28;20114;-82
2022/06/01 06:18:41;;;;;;;5.57;2.95;;;;;;;-141.50;100.00;63355.56;5054454;28;20048;-80
2022/06/01 06:21:08;;;;;;;4.90;3.17;;;;;;;-141.50;100.00;63355.56;5071741;28;20476;-80
2022/06/01 06:23:35;;;;;;;5.82;3.03;;;;;;;-141.50;100.00;63355.56;5059356;28;20591;-79
2022/06/01 06:26:03;;;;;;;7.15;3.35;;;;;;;-141.50;100.00;63355.56;5078641;28;20056;-78
2022/06/01 06:28:31;;;;;;;5.68;3.15;;;;;;;-141.50;100.00;63355.56;5063423;28;20105;-78
2022/06/01 06:30:59;;;;;;;7.88;3.47;;;;;;;-141.50;100.00;63355.56;5058810;28;20056;-82
2022/06/01 06:33:25;;;;;;;5.18;2.90;;;;;;;-141.50;100.00;63355.56;5071034;28;20135;-81
2022/06/01 06:35:58;;;;;;;6.43;3.05;;;;;;;-141.50;100.00;63355.56;5053366;28;20136;-80
2022/06/01 06:38:26;;;;;;;5.00;2.70;;;;;;;-141.50;100.00;63355.56;5053006;28;20542;-78
2022/06/01 06:40:58;;;;;;;4.93;2.88;;;;;;;-141.50;100.00;63355.56;5072488;28;20059;-79
2022/06/01 06:43:27;;;;;;;10.18;2.80;;;;;;;-141.50;100.00;63355.56;5057478;28;20076;-80
2022/06/01 06:46:06;;;;;;;4.68;2.22;;;;;;;-141.50;100.00;63355.56;5070578;28;20048;-80
2022/06/01 06:48:33;;;;;;;3.97;2.20;;;;;;;-141.50;100.00;63355.56;5069740;28;20051;-81
2022/06/01 06:51:00;;;;;;;3.65;2.30;;;;;;;-141.50;100.00;63355.56;5071475;28;20048;-82
2022/06/01 06:53:28;;;;;;;3.60;2.10;;;;;;;-141.50;100.00;63355.56;5052816;28;20090;-81
2022/06/01 06:55:55;;;;;;;3.05;1.83;;;;;;;-141.50;100.00;63355.56;5054070;28;20049;-83
2022/06/01 06:58:22;;;;;;;4.15;1.90;;;;;;;-141.50;100.00;63355.56;5075916;28;20426;-77
2022/06/01 07:00:49;;;;;;;3.03;1.85;;;;;;;-141.50;100.00;63355.56;5075001;28;20044;-78
2022/06/01 07:03:16;;;;;;;4.93;2.08;;;;;;;-141.50;100.00;63355.56;5059804;28;20078;-78
2022/06/01 07:08:28;;;;;;;3.92;2.17;;;;;;;-141.50;100.00;63355.56;5078513;28;20087;-78
2022/06/01 07:10:56;;;;;;;5.88;2.55;;;;;;;-141.50;100.00;63355.56;5088253;28;20087;-86
2022/06/01 07:13:23;;;;;;;8.00;4.45;;;;;;;-141.50;100.00;63355.56;5090724;28;20045;-85
2022/06/01 07:16:01;;;;;;;4.38;2.60;;;;;;;-141.50;100.00;63355.56;5080815;28;20139;-81
2022/06/01 07:18:29;;;;;;;3.92;2.33;;;;;;;-141.50;100.00;63355.56;5076705;28;20053;-80
2022/06/01 07:20:55;;;;;;;7.45;2.10;;;;;;;-141.50;100.00;63355.56;5058952;28;20048;-82
2022/06/01 07:23:22;;;;;;;4.75;2.00;;;;;;;-141.50;100.00;63355.56;5058548;28;20518;-84
2022/06/01 07:25:51;;;;;;;2.75;1.75;;;;;;;-141.50;100.00;63355.56;5071637;28;20045;-82
2022/06/01 07:28:21;;;;;;;2.92;1.60;;;;;;;-141.50;100.00;63355.56;5055337;28;20052;-81
2022/06/01 07:30:50;;;;;;;4.68;1.77;;;;;;;-141.50;100.00;63355.56;5073571;28;20049;-81
2022/06/01 07:33:17;;;;;;;5.28;1.75;;;;;;;-141.50;100.00;63355.56;5072714;28;20056;-81
2022/06/01 07:35:44;;;;;;;5.20;2.08;;;;;;;-141.50;100.00;63355.56;5074499;28;20080;-82
2022/06/01 07:43:42;;;;;;;2.92;1.70;;;;;;;-141.50;100.00;63355.56;5074943;28;20090;-83
2022/06/01 07:46:09;;;;;;;4.80;2.10;;;;;;;-141.50;100.00;63355.56;5056694;28;20075;-85
2022/06/01 07:48:36;;;;;;;3.70;1.85;;;;;;;-141.50;100.00;63355.56;5074385;28;20048;-80
2022/06/01 07:51:22;;;;;;;2.10;1.48;;;;;;;-141.50;100.00;63355.56;5075987;28;20150;-83
2022/06/01 07:53:49;;;;;;;3.78;1.92;;;;;;;-141.50;100.00;63355.56;5074054;28;20111;-82
2022/06/01 07:56:18;;;;;;;2.75;1.60;;;;;;;-141.50;100.00;63355.56;5073088;28;20426;-83
2022/06/01 07:58:45;;;;;;;5.45;1.83;;;;;;;-141.50;100.00;63355.56;5072904;28;20102;-80
2022/06/01 08:01:11;;;;;;;5.00;1.77;;;;;;;-141.50;100.00;63355.56;5074900;28;20072;-80
2022/06/01 08:03:38;;;;;;;2.60;1.70;;;;;;;-141.50;100.00;63355.56;5073880;28;20051;-79
2022/06/01 08:06:05;;;;;;;3.85;1.88;;;;;;;-141.50;100.00;63355.56;5072026;28;20075;-80
2022/06/01 08:08:32;;;;;;;3.97;2.05;;;;;;;-141.50;100.00;63355.56;5071982;28;20059;-80
2022/06/01 08:10:59;;;;;;;5.70;2.40;;;;;;;-141.50;100.00;63355.56;5055891;28;20096;-80
2022/06/01 08:13:26;;;;;;;6.15;2.20;;;;;;;-141.50;100.00;63355.56;5075362;28;20044;-83
2022/06/01 08:15:55;;;;;;;4.05;2.08;;;;;;;-141.50;100.00;63355.56;5073060;28;20121;-82
2022/06/01 08:18:23;;;;;;;5.18;2.40;;;;;;;-141.50;100.00;63355.56;5074387;28;20048;-82
2022/06/01 08:20:51;;;;;;;4.53;2.13;;;;;;;-141.50;100.00;63355.56;5073427;28;20059;-82
2022/06/01 08:23:23;;;;;;;3.53;1.80;;;;;;;-141.50;100.00;63355.56;5073081;28;20045;-79
2022/06/01 08:25:50;;;;;;;4.00;1.70;;;;;;;-141.50;100.00;63355.56;5072522;28;20075;-83
2022/06/01 08:28:18;;;;;;;3.28;1.85;;;;;;;-141.50;100.00;63355.56;5073655;28;20140;-80
2022/06/01 08:30:48;;;;;;;3.20;1.60;;;;;;;-141.50;100.00;63355.56;5072423;28;20048;-81
2022/06/01 08:33:15;;;;;;;3.80;1.70;;;;;;;-141.50;100.00;63355.56;5073662;28;20506;-81
2022/06/01 08:35:45;;;;;;;7.30;1.90;;;;;;;-141.50;100.00;63355.56;5055459;28;20087;-84
2022/06/01 08:38:12;;;;;;;5.25;2.20;;;;;;;-141.50;100.00;63355.56;5073608;28;20102;-81
2022/06/01 08:40:43;;;;;;;7.45;2.05;;;;;;;-141.50;100.00;63355.56;5072941;28;20127;-81
2022/06/01 08:43:14;;;;;;;5.78;2.30;;;;;;;-141.50;100.00;63355.56;5057325;28;20093;-81
2022/06/01 08:45:47;;;;;;;3.28;2.13;;;;;;;-141.50;100.00;63355.56;5071604;28;20509;-82
2022/06/01 08:48:19;;;;;;;4.93;2.10;;;;;;;-141.50;100.00;63355.56;5071332;28;20135;-81
2022/06/01 08:50:46;;;;;;;4.13;2.10;;;;;;;-141.50;100.00;63355.56;5069568;28;20072;-81
2022/06/01 08:53:13;;;;;;;6.72;2.80;;;;;;;-141.50;100.00;63355.56;5057737;28;20130;-81
2022/06/01 08:55:48;;;;;;;5.28;2.30;;;;;;;-141.50;100.00;63355.56;5080324;28;20081;-78
2022/06/01 08:58:19;;;;;;;4.78;2.50;;;;;;;-141.50;100.00;63355.56;5066570;28;20048;-80
2022/06/01 09:00:56;;;;;;;6.28;2.30;;;;;;;-141.50;100.00;63355.56;5086107;28;20048;-82
2022/06/01 09:03:35;;;;;;;11.75;2.40;;;;;;;-141.50;100.00;63355.56;5079043;28;20167;-83
2022/06/01 09:06:18;;;;;;;5.40;2.30;;;;;;;-141.50;100.00;63355.56;5074370;28;20079;-81
2022/06/01 09:08:57;;;;;;;4.72;2.00;;;;;;;-141.50;100.00;63355.56;5073034;28;20699;-81
2022/06/01 09:11:32;;;;;;;4.50;2.30;;;;;;;-141.50;100.00;63355.56;5055238;28;20052;-82
2022/06/01 09:14:09;;;;;;;2.20;1.70;;;;;;;-141.50;100.00;63355.56;5072684;28;20117;-82
2022/06/01 09:16:39;;;;;;;3.58;2.20;;;;;;;-141.50;100.00;63355.56;5056060;28;20143;-80
2022/06/01 09:19:14;;;;;;;4.22;2.20;;;;;;;-141.50;100.00;63355.56;5055765;28;20139;-84
2022/06/01 09:24:31;;;;;;;3.38;2.00;;;;;;;-141.50;100.00;63355.56;5076679;28;20048;-82
2022/06/01 09:27:09;;;;;;;3.58;1.90;;;;;;;-141.50;100.00;63355.56;5074204;28;20059;-82
2022/06/01 09:29:51;;;;;;;4.15;2.03;;;;;;;-141.50;100.00;63355.56;5075000;28;20147;-86
2022/06/01 09:32:40;;;;;;;5.40;2.05;;;;;;;-141.50;100.00;63355.56;5057831;28;20537;-85
2022/06/01 09:35:10;;;;;;;3.28;1.80;;;;;;;-141.50;100.00;63355.56;5074150;28;20080;-84
2022/06/01 09:37:42;;;;;;;2.58;1.70;;;;;;;-141.50;100.00;63355.56;5054761;28;20166;-85
2022/06/01 09:40:30;;;;;;;3.28;1.60;;;;;;;-141.50;100.00;63355.56;5072710;28;20083;-83
2022/06/01 09:43:00;;;;;;;2.30;1.35;;;;;;;-141.50;100.00;63355.56;5074432;28;20091;-83
2022/06/01 09:45:29;;;;;;;3.15;1.40;;;;;;;-141.50;100.00;63355.56;5073098;28;20087;-81
2022/06/01 09:48:29;;;;;;;40.33;2.55;;;;;;;-141.50;100.00;63355.56;5069446;28;20110;-82
2022/06/01 09:51:09;;;;;;;3.22;1.30;;;;;;;-141.50;100.00;63355.56;5048884;28;20052;-84
2022/06/01 09:53:42;;;;;;;5.68;1.65;;;;;;;-141.50;100.00;63355.56;5072230;28;20049;-81
2022/06/01 09:56:10;;;;;;;4.88;1.80;;;;;;;-141.50;100.00;63355.56;5070797;28;20464;-81
2022/06/01 10:07:26;;;;;;;4.05;1.67;;;;;;;-141.50;100.00;63355.56;5070782;28;20691;-82
2022/06/01 10:10:04;;;;;;;6.93;1.80;;;;;;;-141.50;100.00;63355.56;5076638;28;20118;-85
2022/06/01 10:12:42;;;;;;;4.00;1.40;;;;;;;-141.50;100.00;63355.56;5073904;28;20076;-84
2022/06/01 10:15:17;;;;;;;3.92;1.60;;;;;;;-141.50;100.00;63355.56;5050620;28;20077;-85
2022/06/01 10:17:51;;;;;;;2.80;1.63;;;;;;;-141.50;100.00;63355.56;5053785;28;20144;-84
2022/06/01 10:20:30;;;;;;;4.68;2.13;;;;;;;-141.50;100.00;63355.56;5054975;28;20065;-86
2022/06/01 10:23:21;;;;;;;4.25;1.90;;;;;;;-141.50;100.00;63355.56;5052631;28;20565;-83
2022/06/01 10:26:20;;;;;;;5.75;1.90;;;;;;;-141.50;100.00;63355.56;5051980;28;20573;-82
2022/06/01 10:29:02;;;;;;;2.65;1.90;;;;;;;-141.50;100.00;63355.56;4999872;28;20523;-82
2022/06/01 10:31:38;;;;;;;2.55;1.70;;;;;;;-141.50;100.00;63355.56;5051798;28;20107;-84
2022/06/01 10:34:04;;;;;;;2.92;1.50;;;;;;;-141.50;100.00;63355.56;5050912;28;20049;-83
2022/06/01 10:36:48;;;;;;;1.98;1.48;;;;;;;-141.50;100.00;63355.56;5052122;28;20540;-83
2022/06/01 10:39:37;;;;;;;4.65;1.50;;;;;;;-141.50;100.00;63355.56;5055454;28;20049;-84
2022/06/01 10:42:09;;;;;;;3.42;1.63;;;;;;;-141.50;100.00;63355.56;5072352;28;20075;-85
2022/06/01 10:45:02;;;;;;;3.53;1.50;;;;;;;-141.50;100.00;63355.56;5062766;28;20060;-81
2022/06/01 10:47:43;;;;;;;3.90;1.70;;;;;;;-141.50;100.00;63355.56;5055191;28;20122;-82
2022/06/01 10:50:17;;;;;;;4.78;1.70;;;;;;;-141.50;100.00;63355.56;5056182;28;20503;-81
2022/06/01 10:53:07;;;;;;;4.10;2.00;;;;;;;-141.50;100.00;63355.56;5072811;28;20136;-84
2022/06/01 10:55:42;;;;;;;3.25;1.70;;;;;;;-141.50;100.00;63355.56;5017911;28;20041;-85
2022/06/01 10:58:24;;;;;;;4.70;1.60;;;;;;;-141.50;100.00;63355.56;5057771;28;20052;-83
2022/06/01 11:00:59;;;;;;;4.85;1.88;;;;;;;-141.50;100.00;63355.56;5057604;28;20412;-83
2022/06/01 11:03:53;;;;;;;2.55;1.50;;;;;;;-141.50;100.00;63355.56;5060135;28;20072;-84
2022/06/01 11:06:30;;;;;;;4.72;1.80;;;;;;;-141.50;100.00;63355.56;5075324;28;20163;-83
2022/06/01 11:09:22;;;;;;;4.68;1.85;;;;;;;-141.50;100.00;63355.56;5061863;28;20055;-80
2022/06/01 11:12:01;;;;;;;2.85;1.40;;;;;;;-141.50;100.00;63355.56;5066972;28;20049;-83
2022/06/01 11:14:56;;;;;;;4.82;1.83;;;;;;;-141.50;100.00;63355.56;5074203;28;20061;-82
2022/06/01 11:17:31;;;;;;;4.20;1.58;;;;;;;-141.50;100.00;63355.56;5090386;28;20056;-83
2022/06/01 11:19:57;;;;;;;4.55;1.90;;;;;;;-141.50;100.00;63355.56;5090159;28;20057;-85
2022/06/01 11:22:28;;;;;;;2.75;1.63;;;;;;;-141.50;100.00;63355.56;5076028;28;20048;-82
2022/06/01 11:25:08;;;;;;;2.78;1.90;;;;;;;-141.50;100.00;63355.56;5082325;28;20051;-82
2022/06/01 11:27:50;;;;;;;3.35;1.23;;;;;;;-141.50;100.00;63355.56;5095780;28;20052;-81
2022/06/01 11:30:18;;;;;;;4.03;1.58;;;;;;;-141.50;100.00;63355.56;5074853;28;20044;-85
2022/06/01 11:33:03;;;;;;;3.47;1.67;;;;;;;-141.50;100.00;63355.56;5092774;28;20036;-80
2022/06/01 11:35:43;;;;;;;3.50;1.90;;;;;;;-141.50;100.00;63355.56;5078986;28;20044;-85
2022/06/01 11:38:09;;;;;;;10.38;1.80;;;;;;;-141.50;100.00;63355.56;5081157;28;20056;-86
2022/06/01 11:40:42;;;;;;;3.17;1.38;;;;;;;-141.50;100.00;63355.56;5084494;28;20044;-82
2022/06/01 11:43:29;;;;;;;4.45;1.40;;;;;;;-141.50;100.00;63355.56;5087809;28;20338;-84
2022/06/01 11:46:02;;;;;;;1.90;1.20;;;;;;;-141.50;100.00;63355.56;5082497;28;20430;-81
2022/06/01 11:48:32;;;;;;;4.90;1.50;;;;;;;-141.50;100.00;63355.56;5079818;28;20059;-81